Metar z pełnej godziny Komunikat METAR ze strony awiacja.imgw.pl Metar G00 EPWR METAR EPWR 240500Z 20006KT 170V230 9999 SCT030 BKN035 OVC042 05/01 Q1022 =